Time;durP1;ratioP1;P1;durP2;ratioP2;P2;SDS_P1;SDS_P2;PMS_P1;PMS_P2;Temp;Humidity;BMP_temperature;BMP_pressure;BME280_temperature;BME280_humidity;BME280_pressure;Samples;Min_cycle;Max_cycle;Signal;HPM_P1;HPM_P2
2022/12/06 00:02:07;;;;;;;21.50;12.70;;;;;;;6.21;80.23;100685.22;5026383;28;20398;-75
2022/12/06 00:04:32;;;;;;;21.13;12.20;;;;;;;6.19;79.89;100692.69;5005921;28;20821;-74
2022/12/06 00:06:58;;;;;;;17.90;12.30;;;;;;;6.16;79.93;100693.91;5015851;28;20419;-74
2022/12/06 00:09:26;;;;;;;17.27;12.80;;;;;;;6.18;80.53;100680.25;5033544;28;20470;-75
2022/12/06 00:11:51;;;;;;;18.77;12.90;;;;;;;6.16;80.34;100679.63;5033284;28;20391;-74
2022/12/06 00:14:18;;;;;;;12.60;10.07;;;;;;;6.16;80.79;100685.84;5018198;28;20802;-75
2022/12/06 00:16:43;;;;;;;14.60;10.27;;;;;;;6.23;80.26;100689.34;5032272;28;20392;-74
2022/12/06 00:19:12;;;;;;;14.65;10.70;;;;;;;6.31;80.09;100684.78;5033630;28;20387;-75
2022/12/06 00:21:38;;;;;;;14.60;10.20;;;;;;;6.35;79.93;100688.69;5030099;28;20442;-74
2022/12/06 00:24:07;;;;;;;16.10;10.38;;;;;;;6.35;79.98;100678.75;5005232;28;20453;-74
2022/12/06 00:26:37;;;;;;;14.18;10.27;;;;;;;6.36;79.99;100679.56;5033335;28;20391;-75
2022/12/06 00:29:03;;;;;;;14.55;10.77;;;;;;;6.39;80.23;100684.56;5033489;28;20391;-74
2022/12/06 00:31:30;;;;;;;13.17;9.67;;;;;;;6.39;80.04;100681.84;5032888;28;20960;-75
2022/12/06 00:33:56;;;;;;;11.63;9.13;;;;;;;6.41;80.15;100679.78;5014437;28;20407;-75
2022/12/06 00:36:30;;;;;;;13.93;8.88;;;;;;;6.41;80.08;100683.28;5023578;28;20410;-74
2022/12/06 00:38:59;;;;;;;13.68;9.00;;;;;;;6.40;79.95;100686.19;5024824;28;20406;-75
2022/12/06 00:41:24;;;;;;;13.43;9.63;;;;;;;6.42;80.16;100676.03;5031555;28;20387;-75
2022/12/06 00:43:51;;;;;;;12.27;8.30;;;;;;;6.40;80.02;100678.94;5018608;28;20944;-74
2022/12/06 00:46:19;;;;;;;13.13;9.03;;;;;;;6.39;80.73;100677.28;5016173;28;20500;-75
2022/12/06 00:48:46;;;;;;;16.15;9.98;;;;;;;6.42;80.13;100673.34;5033088;28;20434;-75
2022/12/06 00:51:13;;;;;;;11.88;8.82;;;;;;;6.44;80.56;100673.97;5032599;28;20388;-74
2022/12/06 00:53:39;;;;;;;16.40;9.90;;;;;;;6.46;80.49;100670.00;5021704;28;20411;-74
2022/12/06 00:56:05;;;;;;;13.35;9.15;;;;;;;6.51;79.70;100672.91;5019892;28;20404;-75
2022/12/06 00:58:31;;;;;;;13.88;9.88;;;;;;;6.53;80.03;100667.28;5026944;28;20402;-74
2022/12/06 01:01:28;;;;;;;14.32;9.10;;;;;;;6.52;80.05;100668.34;5032428;28;20387;-75
2022/12/06 01:03:57;;;;;;;18.08;9.68;;;;;;;6.52;79.93;100660.28;5017063;28;20431;-75
2022/12/06 01:06:27;;;;;;;18.75;10.38;;;;;;;6.52;80.17;100663.75;5031382;28;20395;-75
2022/12/06 01:08:54;;;;;;;11.63;9.13;;;;;;;6.52;79.97;100658.38;5032271;28;20395;-74
2022/12/06 01:11:21;;;;;;;12.63;8.38;;;;;;;6.54;80.26;100658.19;5032641;28;20397;-74
2022/12/06 01:13:47;;;;;;;11.60;8.45;;;;;;;6.57;80.05;100657.75;5019357;28;20403;-74
2022/12/06 01:16:16;;;;;;;13.52;9.13;;;;;;;6.59;79.87;100661.03;5032418;28;20394;-74
2022/12/06 01:18:42;;;;;;;12.65;9.82;;;;;;;6.55;80.18;100652.56;5031961;28;20384;-74
2022/12/06 01:21:13;;;;;;;12.00;9.07;;;;;;;6.51;80.60;100656.75;5032324;28;20383;-74
2022/12/06 01:23:38;;;;;;;11.15;8.52;;;;;;;6.53;80.61;100665.44;5026230;28;20422;-75
2022/12/06 01:26:06;;;;;;;11.53;8.70;;;;;;;6.53;80.43;100667.28;5031069;28;20395;-74
2022/12/06 01:28:32;;;;;;;13.95;9.63;;;;;;;6.52;80.64;100661.06;5031809;28;20773;-74
2022/12/06 01:30:57;;;;;;;14.55;9.88;;;;;;;6.48;80.47;100664.44;5018276;28;20395;-74
2022/12/06 01:33:23;;;;;;;13.70;9.80;;;;;;;6.43;80.89;100664.22;5027690;28;20407;-74
2022/12/06 01:35:48;;;;;;;13.65;9.73;;;;;;;6.22;81.35;100663.44;5032120;28;20399;-74
2022/12/06 01:38:14;;;;;;;15.90;10.23;;;;;;;6.19;82.14;100663.88;5031723;28;20808;-75
2022/12/06 01:40:42;;;;;;;12.30;9.60;;;;;;;6.19;81.99;100666.56;5032127;28;20404;-74
2022/12/06 01:43:30;;;;;;;16.23;9.90;;;;;;;6.15;82.27;100667.22;5014119;28;20526;-74
2022/12/06 01:45:57;;;;;;;12.95;9.43;;;;;;;6.11;82.91;100665.97;5022414;28;20411;-75
2022/12/06 01:48:25;;;;;;;15.93;9.60;;;;;;;6.10;82.53;100665.16;5006754;28;20402;-74
2022/12/06 01:50:52;;;;;;;13.23;10.02;;;;;;;6.13;82.60;100663.91;5031747;28;20762;-74
2022/12/06 01:53:18;;;;;;;11.98;9.50;;;;;;;6.18;82.63;100659.56;5009540;28;20422;-74
2022/12/06 01:55:45;;;;;;;12.57;8.80;;;;;;;6.21;82.79;100659.13;5023494;28;20879;-75
2022/12/06 01:58:22;;;;;;;12.00;8.80;;;;;;;6.22;82.39;100659.97;5031355;28;20486;-74
2022/12/06 02:00:47;;;;;;;11.27;8.40;;;;;;;6.28;82.42;100655.59;5030381;28;20455;-75
2022/12/06 02:03:18;;;;;;;9.90;7.82;;;;;;;6.42;81.90;100662.59;5007095;28;20513;-75
2022/12/06 02:05:44;;;;;;;12.05;8.52;;;;;;;6.50;81.36;100654.25;5001822;28;20422;-74
2022/12/06 02:08:11;;;;;;;11.02;8.40;;;;;;;6.53;81.34;100654.66;5030208;28;20395;-75
2022/12/06 02:10:37;;;;;;;11.93;8.43;;;;;;;6.57;81.57;100655.06;5026491;28;20473;-74
2022/12/06 02:13:03;;;;;;;13.17;9.00;;;;;;;6.58;80.92;100648.63;5005902;28;20501;-75
2022/12/06 02:16:13;;;;;;;11.93;8.20;;;;;;;6.58;80.88;100645.94;5007705;28;20432;-74
2022/12/06 02:19:06;;;;;;;11.70;8.27;;;;;;;6.61;80.74;100645.53;5012171;28;20478;-74
2022/12/06 02:21:52;;;;;;;11.13;8.05;;;;;;;6.61;80.98;100645.53;5016260;28;20742;-74
2022/12/06 02:24:57;;;;;;;9.27;7.27;;;;;;;6.62;81.23;100647.97;5006758;28;20821;-75
2022/12/06 02:27:28;;;;;;;12.10;8.53;;;;;;;6.64;80.71;100645.91;5030904;28;20395;-75
2022/12/06 02:30:10;;;;;;;12.38;8.40;;;;;;;6.65;80.50;100646.75;5031309;28;20449;-74
2022/12/06 02:32:44;;;;;;;11.35;8.85;;;;;;;6.64;81.24;100637.00;5022128;28;20899;-74
2022/12/06 02:35:27;;;;;;;10.48;8.15;;;;;;;6.65;80.80;100636.78;5027424;28;20514;-75
2022/12/06 02:38:01;;;;;;;11.48;8.52;;;;;;;6.66;80.98;100640.31;5023916;28;20390;-74
2022/12/06 02:40:33;;;;;;;12.10;8.00;;;;;;;6.65;81.09;100635.97;5014728;28;20905;-75
2022/12/06 02:43:04;;;;;;;11.35;8.43;;;;;;;6.66;81.29;100643.81;5018112;28;20474;-75
2022/12/06 02:45:37;;;;;;;11.50;8.77;;;;;;;6.67;80.89;100637.41;5000603;28;20909;-74
2022/12/06 02:48:04;;;;;;;11.98;8.45;;;;;;;6.68;80.85;100636.38;5031041;28;20457;-75
2022/12/06 02:50:36;;;;;;;10.93;8.63;;;;;;;6.67;80.91;100631.19;5031114;28;20854;-74
2022/12/06 02:53:02;;;;;;;11.70;8.35;;;;;;;6.70;81.24;100630.75;5016825;28;20415;-75
2022/12/06 02:55:30;;;;;;;12.32;8.98;;;;;;;6.69;80.81;100631.78;5025549;28;20449;-75
2022/12/06 02:57:56;;;;;;;9.88;8.27;;;;;;;6.66;80.84;100624.16;5032354;28;20398;-74
2022/12/06 03:00:33;;;;;;;10.90;8.63;;;;;;;6.58;81.22;100622.53;5035121;28;20387;-74
2022/12/06 03:03:23;;;;;;;10.00;8.38;;;;;;;6.58;80.96;100624.41;5019736;28;20960;-75
2022/12/06 03:06:00;;;;;;;10.98;8.38;;;;;;;6.59;80.83;100624.19;5016842;28;20415;-74
2022/12/06 03:08:38;;;;;;;15.55;9.10;;;;;;;6.63;80.66;100622.72;5034874;28;20391;-74
2022/12/06 03:11:03;;;;;;;9.83;8.30;;;;;;;6.61;81.00;100627.50;5034704;28;20414;-75
2022/12/06 03:13:50;;;;;;;9.63;8.33;;;;;;;6.64;81.23;100623.53;5014819;28;20430;-74
2022/12/06 03:16:21;;;;;;;10.70;9.02;;;;;;;6.61;80.74;100621.28;5033443;28;20759;-75
2022/12/06 03:18:53;;;;;;;12.20;9.05;;;;;;;6.58;81.39;100619.03;5034334;28;20433;-74
2022/12/06 03:21:40;;;;;;;12.67;8.53;;;;;;;6.64;81.29;100619.00;5033349;28;20395;-74
2022/12/06 03:24:09;;;;;;;12.63;8.77;;;;;;;6.64;80.47;100626.25;5022971;28;20423;-74
2022/12/06 03:26:37;;;;;;;10.10;8.57;;;;;;;6.56;80.98;100621.91;5033007;28;20404;-75
2022/12/06 03:29:04;;;;;;;10.07;8.30;;;;;;;6.56;81.33;100618.41;5024464;28;20956;-75
2022/12/06 03:31:33;;;;;;;8.57;7.53;;;;;;;6.50;81.66;100619.25;5013835;28;20402;-75
2022/12/06 03:34:09;;;;;;;13.27;8.57;;;;;;;6.48;81.48;100616.78;5024943;28;20817;-74
2022/12/06 03:36:35;;;;;;;11.63;9.38;;;;;;;6.47;81.90;100607.06;5034361;28;20797;-74
2022/12/06 03:39:03;;;;;;;11.38;8.45;;;;;;;6.52;81.30;100618.00;5034395;28;20498;-75
2022/12/06 03:41:52;;;;;;;10.85;8.80;;;;;;;6.57;80.76;100615.50;5032574;28;20422;-75
2022/12/06 03:44:18;;;;;;;9.57;8.20;;;;;;;6.63;81.19;100614.63;5031989;28;20419;-75
2022/12/06 03:46:47;;;;;;;10.07;7.93;;;;;;;6.66;81.10;100611.50;5026157;28;20403;-75
2022/12/06 03:49:25;;;;;;;10.70;8.32;;;;;;;6.71;80.85;100613.56;5034250;28;20395;-75
2022/12/06 03:51:51;;;;;;;10.93;8.68;;;;;;;6.65;80.34;100607.16;5029089;28;20411;-74
2022/12/06 03:54:16;;;;;;;8.80;7.72;;;;;;;6.65;80.70;100609.84;5034114;28;20391;-75
2022/12/06 03:56:42;;;;;;;11.03;8.70;;;;;;;6.67;80.94;100617.72;5033947;28;20388;-74
2022/12/06 03:59:09;;;;;;;9.73;7.87;;;;;;;6.72;80.88;100609.81;5033892;28;20414;-74
2022/12/06 04:01:35;;;;;;;10.30;8.30;;;;;;;6.74;80.70;100613.13;5029846;28;20398;-75
2022/12/06 04:04:01;;;;;;;9.90;8.57;;;;;;;6.76;80.64;100611.03;5015505;28;20418;-74
2022/12/06 04:06:26;;;;;;;10.80;8.20;;;;;;;6.76;80.32;100611.03;5033865;28;20461;-75
2022/12/06 04:08:52;;;;;;;9.10;7.80;;;;;;;6.77;80.65;100604.63;5033541;28;20448;-74
2022/12/06 04:11:18;;;;;;;11.57;8.30;;;;;;;6.72;80.55;100610.63;5027498;28;20395;-75
2022/12/06 04:13:43;;;;;;;10.70;8.50;;;;;;;6.66;80.46;100608.81;5030187;28;20768;-74
2022/12/06 04:18:54;;;;;;;10.52;8.32;;;;;;;6.58;81.01;100601.00;5033524;28;20973;-74
2022/12/06 04:23:57;;;;;;;11.07;8.65;;;;;;;6.57;81.03;100601.22;5009828;28;20511;-75
2022/12/06 04:26:23;;;;;;;11.47;8.43;;;;;;;6.63;81.13;100600.34;5033490;28;20476;-75
2022/12/06 04:39:48;;;;;;;10.98;9.10;;;;;;;6.67;80.82;100588.94;5007129;28;20387;-74
2022/12/06 04:44:57;;;;;;;14.60;9.52;;;;;;;6.63;81.32;100585.00;5026615;28;20434;-75
2022/12/06 04:47:23;;;;;;;13.70;9.57;;;;;;;6.65;81.06;100572.16;5001633;28;20470;-75
2022/12/06 04:49:49;;;;;;;12.43;9.80;;;;;;;6.63;80.77;100576.09;5031747;28;20867;-74
2022/12/06 04:52:14;;;;;;;11.50;9.35;;;;;;;6.65;80.77;100574.84;5027670;28;20471;-74
2022/12/06 04:54:40;;;;;;;12.75;10.27;;;;;;;6.67;81.24;100571.94;5006640;28;20529;-75
2022/12/06 04:57:09;;;;;;;13.88;10.18;;;;;;;6.70;80.64;100576.91;5031250;28;20418;-75
2022/12/06 04:59:37;;;;;;;15.30;10.10;;;;;;;6.71;80.96;100578.56;5033036;28;20563;-75
2022/12/06 05:02:02;;;;;;;15.65;10.50;;;;;;;6.70;80.85;100572.34;5028874;28;20858;-75
2022/12/06 05:04:27;;;;;;;18.42;10.38;;;;;;;6.69;81.21;100573.38;5020995;28;20499;-75
2022/12/06 05:06:52;;;;;;;12.97;10.10;;;;;;;6.68;81.24;100570.91;5029846;28;20405;-74
2022/12/06 05:09:18;;;;;;;15.23;10.57;;;;;;;6.68;81.44;100565.53;5021492;28;20404;-75
2022/12/06 05:11:43;;;;;;;14.07;9.73;;;;;;;6.70;81.11;100569.66;5015146;28;20420;-74
2022/12/06 05:14:08;;;;;;;14.00;10.13;;;;;;;6.71;81.41;100573.16;5025447;28;20471;-74
2022/12/06 05:16:34;;;;;;;15.27;10.50;;;;;;;6.68;80.91;100566.34;5031103;28;20398;-74
2022/12/06 05:18:59;;;;;;;13.77;10.13;;;;;;;6.68;81.09;100566.34;5032420;28;20402;-75
2022/12/06 05:21:25;;;;;;;15.63;10.57;;;;;;;6.68;81.36;100563.66;5021425;28;20830;-74
2022/12/06 05:23:54;;;;;;;15.07;10.77;;;;;;;6.68;81.27;100568.22;5012370;28;20420;-75
2022/12/06 05:26:22;;;;;;;16.60;11.30;;;;;;;6.66;81.57;100564.91;5020866;28;20402;-75
2022/12/06 05:28:49;;;;;;;18.77;13.07;;;;;;;6.65;81.79;100561.38;5002443;28;20801;-74
2022/12/06 05:31:15;;;;;;;17.92;13.07;;;;;;;6.67;81.29;100570.09;4996761;28;20773;-74
2022/12/06 05:33:41;;;;;;;24.88;16.40;;;;;;;6.68;81.48;100565.53;5007563;28;20828;-74
2022/12/06 05:36:11;;;;;;;25.00;16.10;;;;;;;6.66;81.35;100563.03;5016771;28;20412;-75
2022/12/06 05:38:36;;;;;;;22.35;14.15;;;;;;;6.66;81.40;100565.72;4996631;28;20411;-75
2022/12/06 05:41:03;;;;;;;21.67;13.57;;;;;;;6.67;81.33;100567.38;5003378;28;20723;-75
2022/12/06 05:43:29;;;;;;;30.08;15.80;;;;;;;6.67;81.70;100570.09;4999131;28;20430;-75
2022/12/06 05:45:55;;;;;;;25.30;13.40;;;;;;;6.65;81.72;100571.34;4990390;28;20968;-74
2022/12/06 05:48:23;;;;;;;33.40;15.65;;;;;;;6.66;82.07;100568.41;4998715;28;20500;-74
2022/12/06 05:50:49;;;;;;;27.55;13.45;;;;;;;6.66;81.87;100567.59;5008317;28;20962;-74
2022/12/06 05:53:15;;;;;;;21.20;13.00;;;;;;;6.68;81.57;100574.44;5007752;28;20428;-74
2022/12/06 05:55:41;;;;;;;18.87;12.00;;;;;;;6.70;81.95;100575.03;5013564;28;20953;-75
2022/12/06 05:58:07;;;;;;;21.25;11.80;;;;;;;6.72;81.49;100569.41;4994950;28;20929;-74
2022/12/06 06:00:32;;;;;;;21.77;12.88;;;;;;;6.68;81.69;100570.91;4998230;28;20409;-75
2022/12/06 06:02:58;;;;;;;31.27;16.73;;;;;;;6.67;81.55;100569.25;4993539;28;20398;-74
2022/12/06 06:05:23;;;;;;;22.00;13.63;;;;;;;6.52;82.78;100574.13;4993033;28;20812;-74
2022/12/06 06:07:48;;;;;;;19.58;12.35;;;;;;;6.66;82.14;100579.19;4992052;28;20415;-75
2022/12/06 06:10:15;;;;;;;16.27;12.07;;;;;;;6.70;81.78;100582.28;4995376;28;20847;-74
2022/12/06 06:12:41;;;;;;;20.02;12.25;;;;;;;6.68;81.70;100574.44;4993054;28;20632;-75
2022/12/06 06:15:07;;;;;;;18.03;13.07;;;;;;;6.71;81.83;100575.88;4989332;28;20484;-74
2022/12/06 06:17:33;;;;;;;20.05;12.57;;;;;;;6.69;81.47;100578.75;4992333;28;20410;-75
2022/12/06 06:20:03;;;;;;;27.42;14.10;;;;;;;6.69;81.93;100578.75;4991404;28;20439;-75
2022/12/06 06:22:29;;;;;;;18.42;12.73;;;;;;;6.67;82.27;100566.56;4990575;28;20412;-75
2022/12/06 06:24:54;;;;;;;17.13;12.33;;;;;;;6.67;81.82;100566.56;4991694;28;20893;-74
2022/12/06 06:27:20;;;;;;;18.53;12.40;;;;;;;6.63;82.23;100576.09;4992922;28;20410;-76
2022/12/06 06:29:45;;;;;;;19.53;12.27;;;;;;;6.66;82.26;100576.50;4991863;28;20398;-75
2022/12/06 06:32:11;;;;;;;17.10;11.77;;;;;;;6.65;82.34;100579.44;4992465;28;20533;-74
2022/12/06 06:34:36;;;;;;;18.00;13.07;;;;;;;6.65;81.97;100582.91;4992811;28;20412;-75
2022/12/06 06:37:01;;;;;;;23.17;13.27;;;;;;;6.66;81.97;100587.28;4993315;28;20416;-74
2022/12/06 06:39:27;;;;;;;26.00;16.40;;;;;;;6.65;82.10;100574.03;4998336;28;20476;-74
2022/12/06 06:41:52;;;;;;;19.33;13.07;;;;;;;6.64;82.61;100581.28;5002628;28;20935;-74
2022/12/06 06:44:17;;;;;;;21.70;14.95;;;;;;;6.66;82.24;100576.50;4964920;28;1738577;-75
2022/12/06 06:46:42;;;;;;;23.13;14.97;;;;;;;6.67;81.96;100582.72;5022499;28;20457;-74
2022/12/06 06:49:08;;;;;;;15.87;11.70;;;;;;;6.65;82.00;100582.13;5029485;28;20407;-74
2022/12/06 06:51:33;;;;;;;15.30;11.53;;;;;;;6.62;82.56;100586.03;5024343;28;20395;-74
2022/12/06 06:53:59;;;;;;;14.77;10.57;;;;;;;6.65;82.47;100592.88;5019110;28;20458;-74
2022/12/06 06:56:24;;;;;;;15.93;11.23;;;;;;;6.65;82.16;100590.19;5005724;28;20461;-74
2022/12/06 06:58:50;;;;;;;14.80;10.98;;;;;;;6.65;81.93;100596.38;5008659;28;20558;-74
2022/12/06 07:01:18;;;;;;;16.80;11.33;;;;;;;6.65;82.12;100590.19;5021628;28;20417;-74
2022/12/06 07:03:44;;;;;;;14.98;10.35;;;;;;;6.66;81.93;100589.97;5014307;28;20427;-74
2022/12/06 07:06:10;;;;;;;15.23;10.70;;;;;;;6.64;82.49;100596.63;4999251;28;20754;-74
2022/12/06 07:08:36;;;;;;;15.13;10.20;;;;;;;6.62;82.58;100596.00;4992132;28;20504;-74
2022/12/06 07:11:02;;;;;;;13.38;10.38;;;;;;;6.63;82.34;100597.66;4994813;28;20410;-75
2022/12/06 07:13:28;;;;;;;16.17;10.07;;;;;;;6.63;82.19;100598.47;4990744;28;20927;-74
2022/12/06 07:15:53;;;;;;;14.90;10.30;;;;;;;6.63;82.30;100595.78;5005366;28;20419;-74
2022/12/06 07:18:19;;;;;;;13.37;10.47;;;;;;;6.62;82.59;100593.28;4994877;28;20415;-74
2022/12/06 07:20:45;;;;;;;13.63;9.43;;;;;;;6.61;82.81;100603.25;4992959;28;20548;-74
2022/12/06 07:23:12;;;;;;;15.25;10.25;;;;;;;6.63;82.78;100600.34;4990718;28;20446;-74
2022/12/06 07:25:37;;;;;;;14.63;10.40;;;;;;;6.61;82.43;100608.66;4999565;28;20414;-74
2022/12/06 07:28:03;;;;;;;17.67;12.20;;;;;;;6.63;82.65;100605.72;4993291;28;20998;-74
2022/12/06 07:30:28;;;;;;;21.52;15.48;;;;;;;6.63;82.61;100611.13;4992261;28;20502;-74
2022/12/06 07:32:54;;;;;;;22.50;15.53;;;;;;;6.64;83.00;100602.84;4995202;28;20495;-73
2022/12/06 07:35:19;;;;;;;16.63;12.38;;;;;;;6.67;82.86;100607.78;4995168;28;20491;-74
2022/12/06 07:37:45;;;;;;;17.85;12.48;;;;;;;6.68;82.56;100612.13;5004368;28;20902;-74
2022/12/06 07:40:12;;;;;;;15.27;10.90;;;;;;;6.67;82.65;100604.25;5013999;28;20413;-74
2022/12/06 07:45:21;;;;;;;14.10;10.52;;;;;;;6.70;83.08;100603.81;5011253;28;20489;-74
2022/12/06 07:47:47;;;;;;;13.27;9.40;;;;;;;6.68;82.91;100600.53;5014690;28;20408;-74
2022/12/06 07:50:15;;;;;;;12.75;9.30;;;;;;;6.65;82.40;100601.78;5011629;28;20809;-74
2022/12/06 07:52:41;;;;;;;14.93;10.05;;;;;;;6.65;82.74;100598.28;5014342;28;20415;-74
2022/12/06 07:55:09;;;;;;;13.50;10.23;;;;;;;6.65;82.66;100603.66;5021388;28;20414;-74
2022/12/06 07:57:34;;;;;;;15.25;9.90;;;;;;;6.65;82.84;100609.84;5012666;28;20407;-74
2022/12/06 08:00:00;;;;;;;13.47;9.57;;;;;;;6.69;82.52;100599.47;5017506;28;20476;-74
2022/12/06 08:02:26;;;;;;;13.77;9.73;;;;;;;6.71;83.02;100600.09;5003088;28;20402;-74
2022/12/06 08:04:52;;;;;;;10.82;8.10;;;;;;;6.70;82.87;100604.66;5015659;28;20422;-74
2022/12/06 08:07:18;;;;;;;11.93;8.32;;;;;;;6.71;83.12;100592.84;5001322;28;20465;-74
2022/12/06 08:09:43;;;;;;;14.27;9.37;;;;;;;6.72;83.13;100594.47;5026703;28;20399;-74
2022/12/06 08:12:09;;;;;;;14.77;9.67;;;;;;;6.70;82.81;100596.56;5011476;28;20421;-74
2022/12/06 08:14:35;;;;;;;10.52;8.65;;;;;;;6.69;83.24;100592.22;5022156;28;20449;-74
2022/12/06 08:17:00;;;;;;;9.80;8.23;;;;;;;6.75;82.45;100602.13;5016685;28;20419;-74
2022/12/06 08:19:26;;;;;;;14.20;9.50;;;;;;;6.79;82.87;100595.28;5000852;28;20402;-74
2022/12/06 08:21:51;;;;;;;11.50;8.40;;;;;;;6.84;82.40;100596.50;5010998;28;20438;-74
2022/12/06 08:24:17;;;;;;;8.90;7.17;;;;;;;6.85;82.33;100596.25;5014021;28;20530;-74
2022/12/06 08:26:42;;;;;;;8.35;6.82;;;;;;;6.85;82.54;100595.47;5007921;28;20809;-74
2022/12/06 08:29:08;;;;;;;11.03;7.93;;;;;;;6.87;82.53;100596.88;4995968;28;20964;-74
2022/12/06 08:31:33;;;;;;;11.27;8.87;;;;;;;6.91;81.95;100589.19;5006482;28;20395;-74
2022/12/06 08:34:00;;;;;;;8.27;7.10;;;;;;;6.89;81.96;100585.88;5014469;28;20410;-74
2022/12/06 08:36:27;;;;;;;10.17;7.53;;;;;;;6.87;82.27;100594.19;5024108;28;20894;-74
2022/12/06 08:38:53;;;;;;;9.00;6.55;;;;;;;6.89;82.10;100594.78;5020274;28;20852;-74
2022/12/06 08:44:04;;;;;;;10.57;7.57;;;;;;;6.94;82.27;100603.06;4993614;28;20424;-74
2022/12/06 08:46:30;;;;;;;8.27;6.20;;;;;;;6.94;82.16;100602.22;4983734;28;20939;-74
2022/12/06 08:48:56;;;;;;;11.93;7.18;;;;;;;6.89;82.17;100602.88;4998103;28;20435;-74
2022/12/06 08:51:22;;;;;;;7.05;5.55;;;;;;;6.87;82.10;100606.84;4992687;28;20421;-74
2022/12/06 08:53:47;;;;;;;6.03;5.05;;;;;;;6.87;81.75;100612.22;4997045;28;20838;-74
2022/12/06 08:56:13;;;;;;;6.10;5.20;;;;;;;6.89;81.98;100610.97;4995752;28;20462;-75
2022/12/06 08:58:39;;;;;;;6.72;5.60;;;;;;;6.86;81.78;100608.69;4992984;28;20910;-74
2022/12/06 09:01:31;;;;;;;6.30;5.13;;;;;;;6.88;81.92;100608.50;5000029;28;20428;-74
2022/12/06 09:04:04;;;;;;;6.40;4.97;;;;;;;6.87;81.69;100612.22;4991750;28;20427;-74
2022/12/06 09:06:29;;;;;;;5.57;4.67;;;;;;;6.85;82.04;100614.31;5027131;28;20422;-74
2022/12/06 09:08:57;;;;;;;5.83;5.23;;;;;;;6.84;81.98;100615.34;4993561;28;20790;-74
2022/12/06 09:11:23;;;;;;;6.30;5.30;;;;;;;6.84;81.94;100616.19;4994924;28;20420;-73
2022/12/06 09:13:48;;;;;;;6.00;4.93;;;;;;;6.84;82.21;100621.56;4991650;28;20423;-74
2022/12/06 09:16:20;;;;;;;7.33;5.40;;;;;;;6.86;81.73;100624.84;4994213;28;20423;-74
2022/12/06 09:18:46;;;;;;;7.50;4.78;;;;;;;6.85;81.80;100625.91;4993313;28;20414;-74
2022/12/06 09:21:23;;;;;;;6.18;4.63;;;;;;;6.83;81.50;100619.06;4993387;28;20410;-74
2022/12/06 09:23:49;;;;;;;4.25;3.85;;;;;;;6.66;82.78;100619.59;4993371;28;20416;-75
2022/12/06 09:26:14;;;;;;;6.80;3.88;;;;;;;6.63;82.39;100624.56;4992995;28;20508;-74
2022/12/06 09:28:41;;;;;;;4.87;3.90;;;;;;;6.61;82.09;100623.97;5003617;28;21116;-74
2022/12/06 09:31:07;;;;;;;4.93;3.95;;;;;;;6.74;82.05;100629.28;4994948;28;20426;-74
2022/12/06 09:33:33;;;;;;;4.67;4.00;;;;;;;6.87;81.66;100623.81;4992783;28;20425;-74
2022/12/06 09:36:02;;;;;;;5.18;4.07;;;;;;;6.90;81.03;100631.47;4994908;28;20412;-74
2022/12/06 09:38:28;;;;;;;6.13;4.50;;;;;;;6.92;81.12;100634.75;4994114;28;20410;-74
2022/12/06 09:41:22;;;;;;;5.22;3.90;;;;;;;6.91;81.03;100630.44;4995448;28;20420;-75
2022/12/06 09:44:02;;;;;;;6.28;4.47;;;;;;;6.92;81.85;100639.31;4993583;28;20424;-75
2022/12/06 09:46:43;;;;;;;4.90;4.40;;;;;;;6.91;81.71;100641.22;4995754;28;20427;-75
2022/12/06 09:49:14;;;;;;;5.47;4.13;;;;;;;6.86;81.67;100632.94;5022298;28;20414;-75
2022/12/06 09:52:27;;;;;;;5.53;3.72;;;;;;;6.86;81.56;100630.25;4995066;28;20407;-75
2022/12/06 09:55:02;;;;;;;6.18;4.63;;;;;;;6.89;81.54;100637.06;4992495;28;20425;-75
2022/12/06 09:57:33;;;;;;;5.32;4.05;;;;;;;6.89;81.07;100632.50;4995283;28;20418;-74
2022/12/06 10:00:17;;;;;;;10.98;7.97;;;;;;;6.93;81.86;100631.03;4992097;28;20430;-74
2022/12/06 10:03:12;;;;;;;9.05;5.22;;;;;;;6.96;81.42;100638.69;4995411;28;20553;-73
2022/12/06 10:05:37;;;;;;;11.38;5.68;;;;;;;6.97;80.98;100623.34;4997172;28;20433;-74
2022/12/06 10:08:29;;;;;;;17.03;6.87;;;;;;;6.99;81.63;100622.09;4993888;28;20414;-74
2022/12/06 10:11:22;;;;;;;21.00;8.18;;;;;;;6.98;81.43;100625.81;5027162;28;20430;-73
2022/12/06 10:14:05;;;;;;;24.08;9.73;;;;;;;6.99;81.48;100623.94;4996447;28;20501;-74
2022/12/06 10:16:53;;;;;;;9.38;6.07;;;;;;;6.85;81.71;100617.81;4992248;28;20943;-74
2022/12/06 10:19:40;;;;;;;7.63;5.50;;;;;;;6.89;81.67;100613.66;4991522;28;20443;-74
2022/12/06 10:22:26;;;;;;;6.90;5.35;;;;;;;6.86;81.88;100613.25;4998763;28;20447;-73
2022/12/06 10:25:05;;;;;;;13.27;7.70;;;;;;;6.90;81.39;100614.47;4996750;28;20428;-74
2022/12/06 10:27:37;;;;;;;11.07;7.63;;;;;;;6.91;81.31;100611.59;4992272;28;20461;-73
2022/12/06 10:30:09;;;;;;;20.40;12.10;;;;;;;6.93;81.27;100606.78;4993278;28;20411;-74
2022/12/06 10:33:10;;;;;;;13.70;9.30;;;;;;;6.93;80.89;100606.78;5001131;28;20419;-74
2022/12/06 10:35:40;;;;;;;14.98;9.15;;;;;;;6.95;80.91;100602.00;4992274;28;20494;-74
2022/12/06 10:38:34;;;;;;;12.40;9.00;;;;;;;6.96;81.08;100598.28;4995091;28;20408;-74
2022/12/06 10:41:14;;;;;;;16.20;10.73;;;;;;;7.00;80.84;100604.06;4994829;28;20902;-74
2022/12/06 10:43:57;;;;;;;12.38;8.35;;;;;;;7.00;80.21;100607.56;4992492;28;20434;-73
2022/12/06 10:49:38;;;;;;;7.18;5.35;;;;;;;6.97;80.10;100609.88;5018842;28;20489;-73
2022/12/06 10:52:41;;;;;;;14.02;7.93;;;;;;;6.98;79.78;100611.53;4993973;28;20436;-74
2022/12/06 10:55:09;;;;;;;22.20;9.32;;;;;;;6.93;79.87;100609.50;4996244;28;20417;-74
2022/12/06 10:57:42;;;;;;;18.10;8.45;;;;;;;6.95;80.23;100617.38;4992403;28;20415;-74
2022/12/06 11:00:18;;;;;;;8.40;6.30;;;;;;;6.97;79.77;100608.00;4990262;28;20457;-74
2022/12/06 11:03:07;;;;;;;10.90;6.80;;;;;;;6.99;79.81;100618.56;4991025;28;20419;-74
2022/12/06 11:05:45;;;;;;;7.63;6.15;;;;;;;7.02;80.01;100612.72;4994886;28;20417;-74
2022/12/06 11:08:17;;;;;;;7.75;5.72;;;;;;;7.02;79.06;100610.88;4999341;28;20423;-74
2022/12/06 11:10:44;;;;;;;6.40;5.15;;;;;;;7.00;79.32;100607.56;4994611;28;20418;-74
2022/12/06 11:13:20;;;;;;;5.43;4.68;;;;;;;7.01;79.10;100608.41;4991068;28;20415;-74
2022/12/06 11:16:00;;;;;;;7.53;5.20;;;;;;;6.99;78.74;100610.47;4998119;28;20414;-73
2022/12/06 11:18:27;;;;;;;7.45;5.47;;;;;;;7.00;79.29;100610.28;4995342;28;20417;-74
2022/12/06 11:21:16;;;;;;;9.13;6.10;;;;;;;7.03;79.16;100609.84;4994901;28;20972;-74
2022/12/06 11:23:58;;;;;;;9.52;6.80;;;;;;;7.05;78.81;100613.13;4999764;28;20473;-74
2022/12/06 11:26:51;;;;;;;11.15;7.10;;;;;;;7.07;78.90;100615.63;5004494;28;21186;-74
2022/12/06 11:29:17;;;;;;;8.48;6.50;;;;;;;7.09;78.40;100611.66;5023528;28;20940;-73
2022/12/06 11:31:51;;;;;;;14.20;9.10;;;;;;;7.17;78.30;100613.25;5021892;28;20496;-74
2022/12/06 11:34:42;;;;;;;10.05;7.78;;;;;;;7.20;78.07;100619.03;5017783;28;20503;-74
2022/12/06 11:37:15;;;;;;;8.68;7.68;;;;;;;7.17;78.09;100614.09;5006259;28;20417;-74
2022/12/06 11:39:40;;;;;;;18.97;13.07;;;;;;;7.18;78.04;100606.81;5017097;28;20855;-74
2022/12/06 11:42:07;;;;;;;25.63;17.73;;;;;;;7.21;77.95;100609.09;5014751;28;20410;-74
2022/12/06 11:44:46;;;;;;;15.15;11.07;;;;;;;7.25;77.89;100604.88;5032823;28;20825;-73
2022/12/06 11:47:17;;;;;;;11.67;8.73;;;;;;;7.27;78.15;100606.34;5008615;28;20455;-74
2022/12/06 11:49:45;;;;;;;8.68;7.05;;;;;;;7.30;77.88;100597.81;4995428;28;20486;-74
2022/12/06 11:52:18;;;;;;;10.40;7.55;;;;;;;7.27;77.67;100600.94;5000040;28;20766;-73
2022/12/06 11:54:52;;;;;;;10.83;7.60;;;;;;;7.28;78.21;100604.44;4997066;28;20428;-73
2022/12/06 11:57:24;;;;;;;13.40;8.95;;;;;;;7.31;77.78;100601.31;4996547;28;20422;-73
2022/12/06 12:00:07;;;;;;;9.73;7.53;;;;;;;7.29;77.24;100603.41;4992589;28;20421;-74
2022/12/06 12:02:33;;;;;;;8.25;6.60;;;;;;;7.25;77.56;100596.81;4989344;28;20936;-74
2022/12/06 12:05:37;;;;;;;7.53;5.75;;;;;;;7.25;77.56;100591.41;4990464;28;20429;-74
2022/12/06 12:08:15;;;;;;;10.07;7.78;;;;;;;7.20;76.91;100586.69;4987809;28;20475;-73